KBJJ/BJJ METAR and TAF weather

Enter ICAO airport designator
Station Type Date Time Source
KBJJ METAR 2020/02/20 23:56 UTC NOAA

KBJJ 202356Z AUTO 36009KT 10SM CLR M08/M13 A3054 RMK AO2 SLP360 60000 T10781133 11033 21078 53008


Station Type Date Time Source
KBJJ Decoded METAR 2020/02/20 23:56 UTC NOAA

WOOSTER WAYNE COUNTY AIRPORT, OH, United States (KBJJ) 40-52N 81-53W 343M
Feb 20, 2020 - 06:56 PM EST / 2020.02.20 2356 UTC
Wind: from the N (360 degrees) at 10 MPH (9 KT):0
Visibility: 10 mile(s):0
Sky conditions: clear
Temperature: 18.0 F (-7.8 C)
Windchill: 6 F (-14 C):1
Dew Point: 8.1 F (-13.3 C)
Relative Humidity: 64%
Pressure (altimeter): 30.54 in. Hg (1034 hPa)
Pressure tendency: 0.02 inches (0.8 hPa) higher than three hours ago
ob: KBJJ 202356Z AUTO 36009KT 10SM CLR M08/M13 A3054 RMK AO2 SLP360 60000 T10781133 11033 21078 53008
cycle: 0

Station Type Date Time Source
KBJJ TAF UTC NOAA

Error!

Example: see airport list